Time,TemperatureF,DewpointF,PressureIn,WindDirection,WindDirectionDegrees,WindSpeedMPH,WindSpeedGustMPH,Humidity,HourlyPrecipIn,Conditions,Clouds,dailyrainin,SolarRadiationWatts/m^2,SoftwareType,DateUTC
2013-03-08 00:01:00,38.0,22.0,-100.00,SSE,167,6.0,11.0,52,0.00,,,0.00,0.000000,,2013-03-08 07:01:00,
2013-03-08 00:32:00,40.0,20.0,-100.00,South,176,10.0,17.0,44,0.00,,,0.00,0.000000,,2013-03-08 07:32:00,
2013-03-08 00:42:00,40.0,20.0,-100.00,South,176,10.0,17.0,44,0.00,,,0.00,0.000000,,2013-03-08 07:42:00,
2013-03-08 00:52:00,40.0,20.0,-100.00,South,176,10.0,17.0,44,0.00,,,0.00,0.000000,,2013-03-08 07:52:00,
2013-03-08 01:01:00,40.0,20.0,-100.00,South,176,10.0,17.0,44,0.00,,,0.00,0.000000,,2013-03-08 08:01:00,
2013-03-08 01:32:00,40.0,21.0,-100.00,South,184,8.0,19.0,47,0.00,,,0.00,0.000000,,2013-03-08 08:32:00,
2013-03-08 01:42:00,40.0,21.0,-100.00,South,184,8.0,19.0,47,0.00,,,0.00,0.000000,,2013-03-08 08:42:00,
2013-03-08 01:52:00,40.0,21.0,-100.00,South,184,8.0,19.0,47,0.00,,,0.00,0.000000,,2013-03-08 08:52:00,
2013-03-08 02:02:00,40.0,21.0,-100.00,South,184,8.0,19.0,47,0.00,,,0.00,0.000000,,2013-03-08 09:02:00,
2013-03-08 02:32:00,41.0,24.0,-100.00,SSW,192,6.0,16.0,50,0.00,,,0.00,0.000000,,2013-03-08 09:32:00,
2013-03-08 02:42:00,41.0,24.0,-100.00,SSW,192,6.0,16.0,50,0.00,,,0.00,0.000000,,2013-03-08 09:42:00,
2013-03-08 02:52:00,41.0,24.0,-100.00,SSW,192,6.0,16.0,50,0.00,,,0.00,0.000000,,2013-03-08 09:52:00,
2013-03-08 03:01:00,41.0,24.0,-100.00,SSW,192,6.0,16.0,50,0.00,,,0.00,0.000000,,2013-03-08 10:01:00,
2013-03-08 03:32:00,40.0,23.0,-100.00,SSW,197,6.0,16.0,51,0.00,,,0.00,0.000000,,2013-03-08 10:32:00,
2013-03-08 03:42:00,40.0,23.0,-100.00,SSW,197,6.0,16.0,51,0.00,,,0.00,0.000000,,2013-03-08 10:42:00,
2013-03-08 03:52:00,40.0,23.0,-100.00,SSW,197,6.0,16.0,51,0.00,,,0.00,0.000000,,2013-03-08 10:52:00,
2013-03-08 04:01:00,40.0,23.0,-100.00,SSW,197,6.0,16.0,51,0.00,,,0.00,0.000000,,2013-03-08 11:01:00,
2013-03-08 04:32:00,36.0,26.0,-100.00,South,176,9.0,16.0,66,0.00,,,0.00,0.000000,,2013-03-08 11:32:00,
2013-03-08 04:42:00,36.0,26.0,-100.00,South,176,9.0,16.0,66,0.00,,,0.00,0.000000,,2013-03-08 11:42:00,
2013-03-08 04:52:00,36.0,26.0,-100.00,South,176,9.0,16.0,66,0.00,,,0.00,0.000000,,2013-03-08 11:52:00,
2013-03-08 05:01:00,36.0,26.0,-100.00,South,176,9.0,16.0,66,0.00,,,0.00,0.000000,,2013-03-08 12:01:00,
2013-03-08 05:22:00,34.0,32.0,-100.00,South,187,6.0,19.0,92,0.00,,,0.00,0.000000,,2013-03-08 12:22:00,
2013-03-08 05:32:00,34.0,32.0,-100.00,South,187,6.0,19.0,92,0.00,,,0.00,0.000000,,2013-03-08 12:32:00,
2013-03-08 05:43:00,34.0,32.0,-100.00,South,187,6.0,19.0,92,0.00,,,0.00,0.000000,,2013-03-08 12:43:00,
2013-03-08 05:52:00,34.0,32.0,-100.00,South,187,6.0,19.0,92,0.00,,,0.00,0.000000,,2013-03-08 12:52:00,
2013-03-08 06:01:00,34.0,32.0,-100.00,South,187,6.0,19.0,92,0.00,,,0.00,0.000000,,2013-03-08 13:01:00,
2013-03-08 06:32:00,33.0,32.0,-100.00,South,185,3.0,11.0,97,0.00,,,0.00,0.000000,,2013-03-08 13:32:00,
2013-03-08 06:42:00,33.0,32.0,-100.00,South,185,3.0,11.0,97,0.00,,,0.00,0.000000,,2013-03-08 13:42:00,
2013-03-08 06:52:00,33.0,32.0,-100.00,South,185,3.0,11.0,97,0.00,,,0.00,0.000000,,2013-03-08 13:52:00,
2013-03-08 07:02:00,33.0,32.0,-100.00,South,185,3.0,11.0,97,0.00,,,0.00,0.000000,,2013-03-08 14:02:00,
2013-03-08 07:22:00,32.0,30.0,-100.00,South,177,9.0,19.0,94,0.00,,,0.00,0.000000,,2013-03-08 14:22:00,
2013-03-08 07:32:00,32.0,30.0,-100.00,South,177,9.0,19.0,94,0.00,,,0.00,0.000000,,2013-03-08 14:32:00,
2013-03-08 07:42:00,32.0,30.0,-100.00,South,177,9.0,19.0,94,0.00,,,0.00,0.000000,,2013-03-08 14:42:00,
2013-03-08 07:52:00,32.0,30.0,-100.00,South,177,9.0,19.0,94,0.00,,,0.00,0.000000,,2013-03-08 14:52:00,
2013-03-08 08:02:00,32.0,30.0,-100.00,South,177,9.0,19.0,94,0.00,,,0.00,0.000000,,2013-03-08 15:02:00,
2013-03-08 08:32:00,33.0,32.0,-100.00,South,171,9.0,17.0,98,0.00,,,0.00,6.000000,,2013-03-08 15:32:00,
2013-03-08 08:43:00,33.0,32.0,-100.00,South,171,9.0,17.0,98,0.00,,,0.00,6.000000,,2013-03-08 15:43:00,
2013-03-08 08:53:00,33.0,32.0,-100.00,South,171,9.0,17.0,98,0.00,,,0.00,6.000000,,2013-03-08 15:53:00,
2013-03-08 09:01:00,33.0,32.0,-100.00,South,171,9.0,17.0,98,0.00,,,0.00,6.000000,,2013-03-08 16:01:00,
2013-03-08 10:32:00,33.0,33.0,-100.00,South,177,12.0,23.0,99,-99.99,,,0.00,199.000000,,2013-03-08 17:32:00,
2013-03-08 10:42:00,33.0,33.0,-100.00,South,177,12.0,23.0,99,-99.99,,,0.00,199.000000,,2013-03-08 17:42:00,
2013-03-08 10:52:00,33.0,33.0,-100.00,South,177,12.0,23.0,99,-99.99,,,0.00,199.000000,,2013-03-08 17:52:00,
2013-03-08 11:01:00,33.0,33.0,-100.00,South,177,12.0,23.0,99,-99.99,,,0.00,199.000000,,2013-03-08 18:01:00,
2013-03-08 11:22:00,33.0,33.0,-100.00,West,264,7.0,27.0,99,0.00,,,0.00,200.000000,,2013-03-08 18:22:00,
2013-03-08 11:32:00,33.0,33.0,-100.00,West,264,7.0,27.0,99,0.00,,,0.00,200.000000,,2013-03-08 18:32:00,
2013-03-08 11:42:00,33.0,33.0,-100.00,West,264,7.0,27.0,99,0.00,,,0.00,200.000000,,2013-03-08 18:42:00,
2013-03-08 11:52:00,33.0,33.0,-100.00,West,264,7.0,27.0,99,0.00,,,0.00,200.000000,,2013-03-08 18:52:00,
2013-03-08 12:01:00,33.0,33.0,-100.00,West,264,7.0,27.0,99,0.00,,,0.00,200.000000,,2013-03-08 19:01:00,
2013-03-08 12:32:00,32.0,32.0,-100.00,South,180,8.0,23.0,99,0.00,,,0.00,245.000000,,2013-03-08 19:32:00,
2013-03-08 12:42:00,32.0,32.0,-100.00,South,180,8.0,23.0,99,0.00,,,0.00,245.000000,,2013-03-08 19:42:00,
2013-03-08 12:52:00,32.0,32.0,-100.00,South,180,8.0,23.0,99,0.00,,,0.00,245.000000,,2013-03-08 19:52:00,
2013-03-08 13:01:00,32.0,32.0,-100.00,South,180,8.0,23.0,99,0.00,,,0.00,245.000000,,2013-03-08 20:01:00,
2013-03-08 13:22:00,32.0,32.0,-100.00,South,174,14.0,32.0,99,0.00,,,0.00,323.000000,,2013-03-08 20:22:00,
2013-03-08 13:32:00,32.0,32.0,-100.00,South,174,14.0,32.0,99,0.00,,,0.00,323.000000,,2013-03-08 20:32:00,
2013-03-08 13:42:00,32.0,32.0,-100.00,South,174,14.0,32.0,99,0.00,,,0.00,323.000000,,2013-03-08 20:42:00,
2013-03-08 13:53:00,32.0,32.0,-100.00,South,174,14.0,32.0,99,0.00,,,0.00,323.000000,,2013-03-08 20:53:00,
2013-03-08 14:01:00,32.0,32.0,-100.00,South,174,14.0,32.0,99,0.00,,,0.00,323.000000,,2013-03-08 21:01:00,
2013-03-08 14:32:00,33.0,33.0,-100.00,South,185,5.0,26.0,99,0.00,,,0.00,140.000000,,2013-03-08 21:32:00,
2013-03-08 14:42:00,33.0,33.0,-100.00,South,185,5.0,26.0,99,0.00,,,0.00,140.000000,,2013-03-08 21:42:00,
2013-03-08 14:52:00,33.0,33.0,-100.00,South,185,5.0,26.0,99,0.00,,,0.00,140.000000,,2013-03-08 21:52:00,
2013-03-08 15:01:00,33.0,33.0,-100.00,South,185,5.0,26.0,99,0.00,,,0.00,140.000000,,2013-03-08 22:01:00,
2013-03-08 15:32:00,33.0,33.0,-100.00,South,185,4.0,13.0,99,0.01,,,0.01,139.000000,,2013-03-08 22:32:00,
2013-03-08 15:42:00,33.0,33.0,-100.00,South,185,4.0,13.0,99,0.01,,,0.01,139.000000,,2013-03-08 22:42:00,
2013-03-08 15:52:00,33.0,33.0,-100.00,South,185,4.0,13.0,99,0.01,,,0.01,139.000000,,2013-03-08 22:52:00,
2013-03-08 16:01:00,33.0,33.0,-100.00,South,185,4.0,13.0,99,0.01,,,0.01,139.000000,,2013-03-08 23:01:00,
2013-03-08 16:22:00,32.0,32.0,-100.00,SW,228,3.0,12.0,99,0.00,,,0.01,30.000000,,2013-03-08 23:22:00,
2013-03-08 16:32:00,32.0,32.0,-100.00,SW,228,3.0,12.0,99,0.00,,,0.01,30.000000,,2013-03-08 23:32:00,
2013-03-08 16:42:00,32.0,32.0,-100.00,SW,228,3.0,12.0,99,0.00,,,0.01,30.000000,,2013-03-08 23:42:00,
2013-03-08 16:52:00,32.0,32.0,-100.00,SW,228,3.0,12.0,99,0.00,,,0.01,30.000000,,2013-03-08 23:52:00,
2013-03-08 17:01:00,32.0,32.0,-100.00,SW,228,3.0,12.0,99,0.00,,,0.01,30.000000,,2013-03-09 00:01:00,
2013-03-08 17:32:00,28.0,28.0,-100.00,SSE,165,6.0,16.0,98,0.00,,,0.01,26.000000,,2013-03-09 00:32:00,
2013-03-08 17:42:00,28.0,28.0,-100.00,SSE,165,6.0,16.0,98,0.00,,,0.01,26.000000,,2013-03-09 00:42:00,
2013-03-08 17:52:00,28.0,28.0,-100.00,SSE,165,6.0,16.0,98,0.00,,,0.01,26.000000,,2013-03-09 00:52:00,
2013-03-08 18:01:00,28.0,28.0,-100.00,SSE,165,6.0,16.0,98,0.00,,,0.01,26.000000,,2013-03-09 01:01:00,
2013-03-08 20:32:00,23.0,22.0,-100.00,SE,139,6.0,19.0,95,-99.99,,,0.01,0.000000,,2013-03-09 03:32:00,
2013-03-08 20:42:00,23.0,22.0,-100.00,SE,139,6.0,19.0,95,-99.99,,,0.01,0.000000,,2013-03-09 03:42:00,
2013-03-08 20:52:00,23.0,22.0,-100.00,SE,139,6.0,19.0,95,-99.99,,,0.01,0.000000,,2013-03-09 03:52:00,
2013-03-08 21:01:00,23.0,22.0,-100.00,SE,139,6.0,19.0,95,-99.99,,,0.01,0.000000,,2013-03-09 04:01:00,
2013-03-08 21:22:00,23.0,22.0,-100.00,NNE,14,2.0,18.0,96,0.00,,,0.01,0.000000,,2013-03-09 04:22:00,
2013-03-08 21:32:00,23.0,22.0,-100.00,NNE,14,2.0,18.0,96,0.00,,,0.01,0.000000,,2013-03-09 04:32:00,
2013-03-08 21:42:00,23.0,22.0,-100.00,NNE,14,2.0,18.0,96,0.00,,,0.01,0.000000,,2013-03-09 04:42:00,
2013-03-08 21:52:00,23.0,22.0,-100.00,NNE,14,2.0,18.0,96,0.00,,,0.01,0.000000,,2013-03-09 04:52:00,
2013-03-08 22:01:00,23.0,22.0,-100.00,NNE,14,2.0,18.0,96,0.00,,,0.01,0.000000,,2013-03-09 05:01:00,
2013-03-08 22:32:00,23.0,22.0,-100.00,ESE,111,3.0,15.0,95,0.00,,,0.01,0.000000,,2013-03-09 05:32:00,
2013-03-08 22:43:00,23.0,22.0,-100.00,ESE,111,3.0,15.0,95,0.00,,,0.01,0.000000,,2013-03-09 05:43:00,
2013-03-08 22:53:00,23.0,22.0,-100.00,ESE,111,3.0,15.0,95,0.00,,,0.01,0.000000,,2013-03-09 05:53:00,
2013-03-08 23:01:00,23.0,22.0,-100.00,ESE,111,3.0,15.0,95,0.00,,,0.01,0.000000,,2013-03-09 06:01:00,
2013-03-08 23:32:00,23.0,22.0,-100.00,SSW,195,5.0,13.0,96,0.00,,,0.01,0.000000,,2013-03-09 06:32:00,
2013-03-08 23:42:00,23.0,22.0,-100.00,SSW,195,5.0,13.0,96,0.00,,,0.01,0.000000,,2013-03-09 06:42:00,
2013-03-08 23:52:00,23.0,22.0,-100.00,SSW,195,5.0,13.0,96,0.00,,,0.01,0.000000,,2013-03-09 06:52:00,